sensor_id;sensor_type;location;lat;lon;timestamp;temperature;humidity
26378;DHT22;14078;50.974;6.786;2023-12-20T00:02:02;7.80;99.90
26378;DHT22;14078;50.974;6.786;2023-12-20T00:04:29;7.80;99.90
26378;DHT22;14078;50.974;6.786;2023-12-20T00:06:55;7.80;99.90
26378;DHT22;14078;50.974;6.786;2023-12-20T00:09:24;7.80;99.90
26378;DHT22;14078;50.974;6.786;2023-12-20T00:11:51;7.80;99.90
26378;DHT22;14078;50.974;6.786;2023-12-20T00:14:18;7.80;99.90
26378;DHT22;14078;50.974;6.786;2023-12-20T00:16:46;7.80;99.90
26378;DHT22;14078;50.974;6.786;2023-12-20T00:19:13;7.80;99.90
26378;DHT22;14078;50.974;6.786;2023-12-20T00:21:39;7.80;99.90
26378;DHT22;14078;50.974;6.786;2023-12-20T00:24:06;7.80;99.90
26378;DHT22;14078;50.974;6.786;2023-12-20T00:26:33;7.80;99.90
26378;DHT22;14078;50.974;6.786;2023-12-20T00:29:00;7.70;99.90
26378;DHT22;14078;50.974;6.786;2023-12-20T00:31:27;7.70;99.90
26378;DHT22;14078;50.974;6.786;2023-12-20T00:33:55;7.60;99.90
26378;DHT22;14078;50.974;6.786;2023-12-20T00:36:22;7.60;99.90
26378;DHT22;14078;50.974;6.786;2023-12-20T00:38:49;7.60;99.90
26378;DHT22;14078;50.974;6.786;2023-12-20T00:41:16;7.50;99.90
26378;DHT22;14078;50.974;6.786;2023-12-20T00:43:43;7.50;99.90
26378;DHT22;14078;50.974;6.786;2023-12-20T00:46:10;7.50;99.90
26378;DHT22;14078;50.974;6.786;2023-12-20T00:48:37;7.40;99.90
26378;DHT22;14078;50.974;6.786;2023-12-20T00:51:06;7.50;99.90
26378;DHT22;14078;50.974;6.786;2023-12-20T00:53:33;7.40;99.90
26378;DHT22;14078;50.974;6.786;2023-12-20T00:56:00;7.50;99.90
26378;DHT22;14078;50.974;6.786;2023-12-20T00:58:26;7.40;99.90
26378;DHT22;14078;50.974;6.786;2023-12-20T01:00:53;7.40;99.90
26378;DHT22;14078;50.974;6.786;2023-12-20T01:03:20;7.30;99.90
26378;DHT22;14078;50.974;6.786;2023-12-20T01:05:47;7.30;99.90
26378;DHT22;14078;50.974;6.786;2023-12-20T01:08:15;7.20;99.90
26378;DHT22;14078;50.974;6.786;2023-12-20T01:10:42;7.20;99.90
26378;DHT22;14078;50.974;6.786;2023-12-20T01:13:09;7.10;99.90
26378;DHT22;14078;50.974;6.786;2023-12-20T01:15:35;7.10;99.90
26378;DHT22;14078;50.974;6.786;2023-12-20T01:18:03;7.10;99.90
26378;DHT22;14078;50.974;6.786;2023-12-20T01:20:30;7.10;99.90
26378;DHT22;14078;50.974;6.786;2023-12-20T01:22:57;7.10;99.90
26378;DHT22;14078;50.974;6.786;2023-12-20T01:25:25;7.20;99.90
26378;DHT22;14078;50.974;6.786;2023-12-20T01:27:51;7.20;99.90
26378;DHT22;14078;50.974;6.786;2023-12-20T01:30:19;7.20;99.90
26378;DHT22;14078;50.974;6.786;2023-12-20T01:32:46;7.30;99.90
26378;DHT22;14078;50.974;6.786;2023-12-20T01:35:12;7.30;99.90
26378;DHT22;14078;50.974;6.786;2023-12-20T01:37:40;7.30;99.90
26378;DHT22;14078;50.974;6.786;2023-12-20T01:40:07;7.30;99.90
26378;DHT22;14078;50.974;6.786;2023-12-20T01:42:35;7.30;99.90
26378;DHT22;14078;50.974;6.786;2023-12-20T01:45:03;7.30;99.90
26378;DHT22;14078;50.974;6.786;2023-12-20T01:47:30;7.30;99.90
26378;DHT22;14078;50.974;6.786;2023-12-20T01:49:57;7.10;99.90
26378;DHT22;14078;50.974;6.786;2023-12-20T01:52:25;7.10;99.90
26378;DHT22;14078;50.974;6.786;2023-12-20T01:54:53;7.10;99.90
26378;DHT22;14078;50.974;6.786;2023-12-20T01:57:26;7.00;99.90
26378;DHT22;14078;50.974;6.786;2023-12-20T01:59:55;6.90;99.90
26378;DHT22;14078;50.974;6.786;2023-12-20T02:02:22;6.80;99.90
26378;DHT22;14078;50.974;6.786;2023-12-20T02:04:49;6.70;99.90
26378;DHT22;14078;50.974;6.786;2023-12-20T02:07:17;6.60;99.90
26378;DHT22;14078;50.974;6.786;2023-12-20T02:09:44;6.60;99.90
26378;DHT22;14078;50.974;6.786;2023-12-20T02:12:11;6.60;99.90
26378;DHT22;14078;50.974;6.786;2023-12-20T02:14:38;6.50;99.90
26378;DHT22;14078;50.974;6.786;2023-12-20T02:17:06;6.50;99.90
26378;DHT22;14078;50.974;6.786;2023-12-20T02:19:33;6.40;99.90
26378;DHT22;14078;50.974;6.786;2023-12-20T02:22:08;6.50;99.90
26378;DHT22;14078;50.974;6.786;2023-12-20T02:24:35;6.40;99.90
26378;DHT22;14078;50.974;6.786;2023-12-20T02:27:03;6.40;99.90
26378;DHT22;14078;50.974;6.786;2023-12-20T02:29:29;6.40;99.90
26378;DHT22;14078;50.974;6.786;2023-12-20T02:31:57;6.40;99.90
26378;DHT22;14078;50.974;6.786;2023-12-20T02:34:24;6.40;99.90
26378;DHT22;14078;50.974;6.786;2023-12-20T02:36:51;6.40;99.90
26378;DHT22;14078;50.974;6.786;2023-12-20T02:39:19;6.30;99.90
26378;DHT22;14078;50.974;6.786;2023-12-20T02:41:46;6.30;99.90
26378;DHT22;14078;50.974;6.786;2023-12-20T02:44:13;6.20;99.90
26378;DHT22;14078;50.974;6.786;2023-12-20T02:46:40;6.30;99.90
26378;DHT22;14078;50.974;6.786;2023-12-20T02:49:07;6.30;99.90
26378;DHT22;14078;50.974;6.786;2023-12-20T02:51:33;6.30;99.90
26378;DHT22;14078;50.974;6.786;2023-12-20T02:54:03;6.40;99.90
26378;DHT22;14078;50.974;6.786;2023-12-20T02:56:31;6.40;99.90
26378;DHT22;14078;50.974;6.786;2023-12-20T02:58:58;6.40;99.90
26378;DHT22;14078;50.974;6.786;2023-12-20T03:01:26;6.40;99.90
26378;DHT22;14078;50.974;6.786;2023-12-20T03:03:53;6.40;99.90
26378;DHT22;14078;50.974;6.786;2023-12-20T03:06:19;6.40;99.90
26378;DHT22;14078;50.974;6.786;2023-12-20T03:08:46;6.40;99.90
26378;DHT22;14078;50.974;6.786;2023-12-20T03:11:13;6.50;99.90
26378;DHT22;14078;50.974;6.786;2023-12-20T03:13:41;6.50;99.90
26378;DHT22;14078;50.974;6.786;2023-12-20T03:16:08;6.50;99.90
26378;DHT22;14078;50.974;6.786;2023-12-20T03:18:35;6.60;99.90
26378;DHT22;14078;50.974;6.786;2023-12-20T03:21:02;6.60;99.90
26378;DHT22;14078;50.974;6.786;2023-12-20T03:23:29;6.50;99.90
26378;DHT22;14078;50.974;6.786;2023-12-20T03:25:58;6.60;99.90
26378;DHT22;14078;50.974;6.786;2023-12-20T03:28:25;6.50;99.90
26378;DHT22;14078;50.974;6.786;2023-12-20T03:30:53;6.40;99.90
26378;DHT22;14078;50.974;6.786;2023-12-20T03:33:20;6.50;99.90
26378;DHT22;14078;50.974;6.786;2023-12-20T03:35:47;6.50;99.90
26378;DHT22;14078;50.974;6.786;2023-12-20T03:38:13;6.50;99.90
26378;DHT22;14078;50.974;6.786;2023-12-20T03:40:40;6.50;99.90
26378;DHT22;14078;50.974;6.786;2023-12-20T03:43:07;6.50;99.90
26378;DHT22;14078;50.974;6.786;2023-12-20T03:45:34;6.40;99.90
26378;DHT22;14078;50.974;6.786;2023-12-20T03:48:03;6.50;99.90
26378;DHT22;14078;50.974;6.786;2023-12-20T03:50:29;6.50;99.90
26378;DHT22;14078;50.974;6.786;2023-12-20T03:52:56;6.50;99.90
26378;DHT22;14078;50.974;6.786;2023-12-20T03:55:24;6.60;99.90
26378;DHT22;14078;50.974;6.786;2023-12-20T03:57:51;6.60;99.90
26378;DHT22;14078;50.974;6.786;2023-12-20T04:00:18;6.60;99.90
26378;DHT22;14078;50.974;6.786;2023-12-20T04:02:45;6.50;99.90
26378;DHT22;14078;50.974;6.786;2023-12-20T04:05:13;6.50;99.90
26378;DHT22;14078;50.974;6.786;2023-12-20T04:07:40;6.50;99.90
26378;DHT22;14078;50.974;6.786;2023-12-20T04:10:08;6.50;99.90
26378;DHT22;14078;50.974;6.786;2023-12-20T04:12:34;6.40;99.90
26378;DHT22;14078;50.974;6.786;2023-12-20T04:15:01;6.30;99.90
26378;DHT22;14078;50.974;6.786;2023-12-20T04:17:34;6.30;99.90
26378;DHT22;14078;50.974;6.786;2023-12-20T04:20:01;6.40;99.90
26378;DHT22;14078;50.974;6.786;2023-12-20T04:22:29;6.40;99.90
26378;DHT22;14078;50.974;6.786;2023-12-20T04:24:56;6.40;99.90
26378;DHT22;14078;50.974;6.786;2023-12-20T04:27:22;6.40;99.90
26378;DHT22;14078;50.974;6.786;2023-12-20T04:29:49;6.30;99.90
26378;DHT22;14078;50.974;6.786;2023-12-20T04:32:16;6.30;99.90
26378;DHT22;14078;50.974;6.786;2023-12-20T04:34:43;6.30;99.90
26378;DHT22;14078;50.974;6.786;2023-12-20T04:37:09;6.30;99.90
26378;DHT22;14078;50.974;6.786;2023-12-20T04:39:39;6.20;99.90
26378;DHT22;14078;50.974;6.786;2023-12-20T04:42:06;6.20;99.90
26378;DHT22;14078;50.974;6.786;2023-12-20T04:44:33;6.20;99.90
26378;DHT22;14078;50.974;6.786;2023-12-20T04:47:00;6.20;99.90
26378;DHT22;14078;50.974;6.786;2023-12-20T04:49:27;6.20;99.90
26378;DHT22;14078;50.974;6.786;2023-12-20T04:51:54;6.20;99.90
26378;DHT22;14078;50.974;6.786;2023-12-20T04:54:21;6.10;99.90
26378;DHT22;14078;50.974;6.786;2023-12-20T04:56:49;6.10;99.90
26378;DHT22;14078;50.974;6.786;2023-12-20T04:59:16;6.00;99.90
26378;DHT22;14078;50.974;6.786;2023-12-20T05:01:43;6.00;99.90
26378;DHT22;14078;50.974;6.786;2023-12-20T05:04:09;6.10;99.90
26378;DHT22;14078;50.974;6.786;2023-12-20T05:06:36;6.10;99.90
26378;DHT22;14078;50.974;6.786;2023-12-20T05:09:03;6.00;99.90
26378;DHT22;14078;50.974;6.786;2023-12-20T05:11:30;6.00;99.90
26378;DHT22;14078;50.974;6.786;2023-12-20T05:13:58;6.00;99.90
26378;DHT22;14078;50.974;6.786;2023-12-20T05:16:25;5.90;99.90
26378;DHT22;14078;50.974;6.786;2023-12-20T05:18:51;5.90;99.90
26378;DHT22;14078;50.974;6.786;2023-12-20T05:21:19;5.90;99.90
26378;DHT22;14078;50.974;6.786;2023-12-20T05:23:45;6.00;99.90
26378;DHT22;14078;50.974;6.786;2023-12-20T05:26:12;6.00;99.90
26378;DHT22;14078;50.974;6.786;2023-12-20T05:28:39;6.00;99.90
26378;DHT22;14078;50.974;6.786;2023-12-20T05:31:07;5.90;99.90
26378;DHT22;14078;50.974;6.786;2023-12-20T05:33:34;5.90;99.90
26378;DHT22;14078;50.974;6.786;2023-12-20T05:36:01;5.90;99.90
26378;DHT22;14078;50.974;6.786;2023-12-20T05:38:28;6.00;99.90
26378;DHT22;14078;50.974;6.786;2023-12-20T05:40:54;5.90;99.90
26378;DHT22;14078;50.974;6.786;2023-12-20T05:43:21;6.00;99.90
26378;DHT22;14078;50.974;6.786;2023-12-20T05:45:48;5.90;99.90
26378;DHT22;14078;50.974;6.786;2023-12-20T05:48:16;6.00;99.90
26378;DHT22;14078;50.974;6.786;2023-12-20T05:50:43;6.00;99.90
26378;DHT22;14078;50.974;6.786;2023-12-20T05:53:10;6.00;99.90
26378;DHT22;14078;50.974;6.786;2023-12-20T05:55:36;6.00;99.90
26378;DHT22;14078;50.974;6.786;2023-12-20T05:58:03;6.10;99.90
26378;DHT22;14078;50.974;6.786;2023-12-20T06:00:30;6.10;99.90
26378;DHT22;14078;50.974;6.786;2023-12-20T06:02:57;6.10;99.90
26378;DHT22;14078;50.974;6.786;2023-12-20T06:05:26;6.10;99.90
26378;DHT22;14078;50.974;6.786;2023-12-20T06:08:17;6.10;99.90
26378;DHT22;14078;50.974;6.786;2023-12-20T06:11:01;6.20;99.90
26378;DHT22;14078;50.974;6.786;2023-12-20T06:13:31;6.20;99.90
26378;DHT22;14078;50.974;6.786;2023-12-20T06:16:06;6.20;99.90
26378;DHT22;14078;50.974;6.786;2023-12-20T06:18:47;6.30;99.90
26378;DHT22;14078;50.974;6.786;2023-12-20T06:21:16;6.20;99.90
26378;DHT22;14078;50.974;6.786;2023-12-20T06:23:42;6.20;99.90
26378;DHT22;14078;50.974;6.786;2023-12-20T06:26:09;6.30;99.90
26378;DHT22;14078;50.974;6.786;2023-12-20T06:28:36;6.30;99.90
26378;DHT22;14078;50.974;6.786;2023-12-20T06:31:03;6.40;99.90
26378;DHT22;14078;50.974;6.786;2023-12-20T06:33:30;6.40;99.90
26378;DHT22;14078;50.974;6.786;2023-12-20T06:35:57;6.40;99.90
26378;DHT22;14078;50.974;6.786;2023-12-20T06:38:31;6.40;99.90
26378;DHT22;14078;50.974;6.786;2023-12-20T06:40:58;6.40;99.90
26378;DHT22;14078;50.974;6.786;2023-12-20T06:43:25;6.50;99.90
26378;DHT22;14078;50.974;6.786;2023-12-20T06:45:52;6.50;99.90
26378;DHT22;14078;50.974;6.786;2023-12-20T06:48:19;6.50;99.90
26378;DHT22;14078;50.974;6.786;2023-12-20T06:50:46;6.50;99.90
26378;DHT22;14078;50.974;6.786;2023-12-20T06:53:13;6.50;99.90
26378;DHT22;14078;50.974;6.786;2023-12-20T06:55:42;6.60;99.90
26378;DHT22;14078;50.974;6.786;2023-12-20T06:58:12;6.60;99.90
26378;DHT22;14078;50.974;6.786;2023-12-20T07:00:39;6.60;99.90
26378;DHT22;14078;50.974;6.786;2023-12-20T07:03:06;6.70;99.90
26378;DHT22;14078;50.974;6.786;2023-12-20T07:05:32;6.60;99.90
26378;DHT22;14078;50.974;6.786;2023-12-20T07:07:59;6.70;99.90
26378;DHT22;14078;50.974;6.786;2023-12-20T07:10:26;6.70;99.90
26378;DHT22;14078;50.974;6.786;2023-12-20T07:12:54;6.70;99.90
26378;DHT22;14078;50.974;6.786;2023-12-20T07:15:22;6.70;99.90
26378;DHT22;14078;50.974;6.786;2023-12-20T07:18:03;6.70;99.90
26378;DHT22;14078;50.974;6.786;2023-12-20T07:20:42;6.70;99.90
26378;DHT22;14078;50.974;6.786;2023-12-20T07:23:10;6.70;99.90
26378;DHT22;14078;50.974;6.786;2023-12-20T07:25:37;6.70;99.90
26378;DHT22;14078;50.974;6.786;2023-12-20T07:28:05;6.70;99.90
26378;DHT22;14078;50.974;6.786;2023-12-20T07:30:35;6.70;99.90
26378;DHT22;14078;50.974;6.786;2023-12-20T07:33:02;6.70;99.90
26378;DHT22;14078;50.974;6.786;2023-12-20T07:35:29;6.70;99.90
26378;DHT22;14078;50.974;6.786;2023-12-20T07:37:56;6.70;99.90
26378;DHT22;14078;50.974;6.786;2023-12-20T07:40:26;6.60;99.90
26378;DHT22;14078;50.974;6.786;2023-12-20T07:42:53;6.70;99.90
26378;DHT22;14078;50.974;6.786;2023-12-20T07:45:21;6.70;99.90
26378;DHT22;14078;50.974;6.786;2023-12-20T07:47:48;6.70;99.90
26378;DHT22;14078;50.974;6.786;2023-12-20T07:50:16;6.80;99.90
26378;DHT22;14078;50.974;6.786;2023-12-20T07:52:43;6.70;99.90
26378;DHT22;14078;50.974;6.786;2023-12-20T07:55:10;6.70;99.90
26378;DHT22;14078;50.974;6.786;2023-12-20T07:57:37;6.70;99.90
26378;DHT22;14078;50.974;6.786;2023-12-20T08:00:07;6.70;99.90
26378;DHT22;14078;50.974;6.786;2023-12-20T08:02:37;6.70;99.90
26378;DHT22;14078;50.974;6.786;2023-12-20T08:05:05;6.70;99.90
26378;DHT22;14078;50.974;6.786;2023-12-20T08:07:33;6.60;99.90
26378;DHT22;14078;50.974;6.786;2023-12-20T08:10:00;6.60;99.90
26378;DHT22;14078;50.974;6.786;2023-12-20T08:12:27;6.60;99.90
26378;DHT22;14078;50.974;6.786;2023-12-20T08:14:56;6.60;99.90
26378;DHT22;14078;50.974;6.786;2023-12-20T08:17:25;6.60;99.90
26378;DHT22;14078;50.974;6.786;2023-12-20T08:19:57;6.60;99.90
26378;DHT22;14078;50.974;6.786;2023-12-20T08:22:26;6.50;99.90
26378;DHT22;14078;50.974;6.786;2023-12-20T08:24:53;6.50;99.90
26378;DHT22;14078;50.974;6.786;2023-12-20T08:27:21;6.60;99.90
26378;DHT22;14078;50.974;6.786;2023-12-20T08:29:47;6.50;99.90
26378;DHT22;14078;50.974;6.786;2023-12-20T08:32:16;6.40;99.90
26378;DHT22;14078;50.974;6.786;2023-12-20T08:34:43;6.50;99.90
26378;DHT22;14078;50.974;6.786;2023-12-20T08:37:11;6.50;99.90
26378;DHT22;14078;50.974;6.786;2023-12-20T08:39:38;6.50;99.90
26378;DHT22;14078;50.974;6.786;2023-12-20T08:42:05;6.50;99.90
26378;DHT22;14078;50.974;6.786;2023-12-20T08:44:32;6.50;99.90
26378;DHT22;14078;50.974;6.786;2023-12-20T08:47:00;6.50;99.90
26378;DHT22;14078;50.974;6.786;2023-12-20T08:49:30;6.50;99.90
26378;DHT22;14078;50.974;6.786;2023-12-20T08:51:57;6.60;99.90
26378;DHT22;14078;50.974;6.786;2023-12-20T08:54:28;6.60;99.90
26378;DHT22;14078;50.974;6.786;2023-12-20T08:56:58;6.60;99.90
26378;DHT22;14078;50.974;6.786;2023-12-20T08:59:27;6.60;99.90
26378;DHT22;14078;50.974;6.786;2023-12-20T09:01:57;6.60;99.90
26378;DHT22;14078;50.974;6.786;2023-12-20T09:04:26;6.80;99.90
26378;DHT22;14078;50.974;6.786;2023-12-20T09:06:53;6.80;99.90
26378;DHT22;14078;50.974;6.786;2023-12-20T09:09:25;6.80;99.90
26378;DHT22;14078;50.974;6.786;2023-12-20T09:11:56;6.90;99.90
26378;DHT22;14078;50.974;6.786;2023-12-20T09:14:27;6.80;99.90
26378;DHT22;14078;50.974;6.786;2023-12-20T09:16:55;6.80;99.90
26378;DHT22;14078;50.974;6.786;2023-12-20T09:19:22;6.90;99.90
26378;DHT22;14078;50.974;6.786;2023-12-20T09:21:50;6.90;99.90
26378;DHT22;14078;50.974;6.786;2023-12-20T09:24:17;6.80;99.90
26378;DHT22;14078;50.974;6.786;2023-12-20T09:26:46;6.90;99.90
26378;DHT22;14078;50.974;6.786;2023-12-20T09:29:16;7.00;99.90
26378;DHT22;14078;50.974;6.786;2023-12-20T09:31:45;6.90;99.90
26378;DHT22;14078;50.974;6.786;2023-12-20T09:34:11;6.90;99.90
26378;DHT22;14078;50.974;6.786;2023-12-20T09:36:47;7.00;99.90
26378;DHT22;14078;50.974;6.786;2023-12-20T09:39:17;7.00;99.90
26378;DHT22;14078;50.974;6.786;2023-12-20T09:41:45;7.00;99.90
26378;DHT22;14078;50.974;6.786;2023-12-20T09:44:21;7.00;99.90
26378;DHT22;14078;50.974;6.786;2023-12-20T09:46:53;7.10;99.90
26378;DHT22;14078;50.974;6.786;2023-12-20T09:49:27;7.10;99.90
26378;DHT22;14078;50.974;6.786;2023-12-20T09:51:57;7.20;99.90
26378;DHT22;14078;50.974;6.786;2023-12-20T09:54:24;7.20;99.90
26378;DHT22;14078;50.974;6.786;2023-12-20T09:56:52;7.10;99.90
26378;DHT22;14078;50.974;6.786;2023-12-20T09:59:24;7.20;99.90
26378;DHT22;14078;50.974;6.786;2023-12-20T10:01:51;7.20;99.90
26378;DHT22;14078;50.974;6.786;2023-12-20T10:04:22;7.30;99.90
26378;DHT22;14078;50.974;6.786;2023-12-20T10:06:49;7.30;99.90
26378;DHT22;14078;50.974;6.786;2023-12-20T10:09:17;7.20;99.90
26378;DHT22;14078;50.974;6.786;2023-12-20T10:11:44;7.20;99.90
26378;DHT22;14078;50.974;6.786;2023-12-20T10:14:12;7.20;99.90
26378;DHT22;14078;50.974;6.786;2023-12-20T10:16:41;7.30;99.90
26378;DHT22;14078;50.974;6.786;2023-12-20T10:19:08;7.30;99.90
26378;DHT22;14078;50.974;6.786;2023-12-20T10:21:34;7.30;99.90
26378;DHT22;14078;50.974;6.786;2023-12-20T10:24:01;7.30;99.90
26378;DHT22;14078;50.974;6.786;2023-12-20T10:26:28;7.30;99.90
26378;DHT22;14078;50.974;6.786;2023-12-20T10:28:59;7.30;99.90
26378;DHT22;14078;50.974;6.786;2023-12-20T10:31:27;7.30;99.90
26378;DHT22;14078;50.974;6.786;2023-12-20T10:33:56;7.30;99.90
26378;DHT22;14078;50.974;6.786;2023-12-20T10:36:23;7.30;99.90
26378;DHT22;14078;50.974;6.786;2023-12-20T10:38:52;7.30;99.90
26378;DHT22;14078;50.974;6.786;2023-12-20T10:41:24;7.40;99.90
26378;DHT22;14078;50.974;6.786;2023-12-20T10:43:51;7.40;99.90
26378;DHT22;14078;50.974;6.786;2023-12-20T10:46:19;7.40;99.90
26378;DHT22;14078;50.974;6.786;2023-12-20T10:48:47;7.40;99.90
26378;DHT22;14078;50.974;6.786;2023-12-20T10:51:17;7.40;99.90
26378;DHT22;14078;50.974;6.786;2023-12-20T10:53:47;7.40;99.90
26378;DHT22;14078;50.974;6.786;2023-12-20T10:56:16;7.50;99.90
26378;DHT22;14078;50.974;6.786;2023-12-20T10:58:43;7.50;99.90
26378;DHT22;14078;50.974;6.786;2023-12-20T11:01:13;7.50;99.90
26378;DHT22;14078;50.974;6.786;2023-12-20T11:03:46;7.50;99.90
26378;DHT22;14078;50.974;6.786;2023-12-20T11:06:25;7.60;99.90
26378;DHT22;14078;50.974;6.786;2023-12-20T11:09:00;7.50;99.90
26378;DHT22;14078;50.974;6.786;2023-12-20T11:11:39;7.50;99.90
26378;DHT22;14078;50.974;6.786;2023-12-20T11:14:15;7.50;99.90
26378;DHT22;14078;50.974;6.786;2023-12-20T11:16:43;7.50;99.90
26378;DHT22;14078;50.974;6.786;2023-12-20T11:19:11;7.50;99.90
26378;DHT22;14078;50.974;6.786;2023-12-20T11:21:41;7.50;99.90
26378;DHT22;14078;50.974;6.786;2023-12-20T11:24:08;7.50;99.90
26378;DHT22;14078;50.974;6.786;2023-12-20T11:26:36;7.50;99.90
26378;DHT22;14078;50.974;6.786;2023-12-20T11:29:30;7.60;99.90
26378;DHT22;14078;50.974;6.786;2023-12-20T11:31:57;7.60;99.90
26378;DHT22;14078;50.974;6.786;2023-12-20T11:34:27;7.60;99.90
26378;DHT22;14078;50.974;6.786;2023-12-20T11:36:59;7.70;99.90
26378;DHT22;14078;50.974;6.786;2023-12-20T11:39:26;7.80;99.90
26378;DHT22;14078;50.974;6.786;2023-12-20T11:41:56;7.90;99.90
26378;DHT22;14078;50.974;6.786;2023-12-20T11:44:25;7.90;99.90
26378;DHT22;14078;50.974;6.786;2023-12-20T11:46:52;7.90;99.90
26378;DHT22;14078;50.974;6.786;2023-12-20T11:49:26;8.00;99.90
26378;DHT22;14078;50.974;6.786;2023-12-20T11:51:55;8.00;99.90
26378;DHT22;14078;50.974;6.786;2023-12-20T11:54:26;7.90;99.90
26378;DHT22;14078;50.974;6.786;2023-12-20T11:56:53;7.90;99.90
26378;DHT22;14078;50.974;6.786;2023-12-20T11:59:22;7.80;99.90
26378;DHT22;14078;50.974;6.786;2023-12-20T12:01:52;7.70;99.90
26378;DHT22;14078;50.974;6.786;2023-12-20T12:04:26;7.70;99.90
26378;DHT22;14078;50.974;6.786;2023-12-20T12:06:54;7.70;99.90
26378;DHT22;14078;50.974;6.786;2023-12-20T12:09:22;7.60;99.90
26378;DHT22;14078;50.974;6.786;2023-12-20T12:11:51;7.60;99.90
26378;DHT22;14078;50.974;6.786;2023-12-20T12:14:18;7.60;99.90
26378;DHT22;14078;50.974;6.786;2023-12-20T12:16:48;7.60;99.90
26378;DHT22;14078;50.974;6.786;2023-12-20T12:19:22;7.60;99.90
26378;DHT22;14078;50.974;6.786;2023-12-20T12:21:51;7.50;99.90
26378;DHT22;14078;50.974;6.786;2023-12-20T12:24:22;7.40;99.90
26378;DHT22;14078;50.974;6.786;2023-12-20T12:26:52;7.40;99.90
26378;DHT22;14078;50.974;6.786;2023-12-20T12:29:20;7.50;99.90
26378;DHT22;14078;50.974;6.786;2023-12-20T12:31:47;7.50;99.90
26378;DHT22;14078;50.974;6.786;2023-12-20T12:34:17;7.50;99.90
26378;DHT22;14078;50.974;6.786;2023-12-20T12:36:46;7.50;99.90
26378;DHT22;14078;50.974;6.786;2023-12-20T12:39:15;7.60;99.90
26378;DHT22;14078;50.974;6.786;2023-12-20T12:41:43;7.60;99.90
26378;DHT22;14078;50.974;6.786;2023-12-20T12:44:10;7.60;99.90
26378;DHT22;14078;50.974;6.786;2023-12-20T12:46:42;7.70;99.90
26378;DHT22;14078;50.974;6.786;2023-12-20T12:49:12;7.70;99.90
26378;DHT22;14078;50.974;6.786;2023-12-20T12:51:41;7.60;99.90
26378;DHT22;14078;50.974;6.786;2023-12-20T12:54:10;7.70;99.90
26378;DHT22;14078;50.974;6.786;2023-12-20T12:56:43;7.60;99.90
26378;DHT22;14078;50.974;6.786;2023-12-20T12:59:13;7.60;99.90
26378;DHT22;14078;50.974;6.786;2023-12-20T13:02:00;7.60;99.90
26378;DHT22;14078;50.974;6.786;2023-12-20T13:04:27;7.50;99.90
26378;DHT22;14078;50.974;6.786;2023-12-20T13:06:56;7.60;99.90
26378;DHT22;14078;50.974;6.786;2023-12-20T13:09:26;7.60;99.90
26378;DHT22;14078;50.974;6.786;2023-12-20T13:11:55;7.60;99.90
26378;DHT22;14078;50.974;6.786;2023-12-20T13:14:22;7.60;99.90
26378;DHT22;14078;50.974;6.786;2023-12-20T13:16:53;7.70;99.90
26378;DHT22;14078;50.974;6.786;2023-12-20T13:19:22;7.60;99.90
26378;DHT22;14078;50.974;6.786;2023-12-20T13:21:50;7.60;99.90
26378;DHT22;14078;50.974;6.786;2023-12-20T13:24:17;7.70;99.90
26378;DHT22;14078;50.974;6.786;2023-12-20T13:26:46;7.70;99.90
26378;DHT22;14078;50.974;6.786;2023-12-20T13:29:17;7.80;99.90
26378;DHT22;14078;50.974;6.786;2023-12-20T13:31:47;7.80;99.90
26378;DHT22;14078;50.974;6.786;2023-12-20T13:34:14;7.70;99.90
26378;DHT22;14078;50.974;6.786;2023-12-20T13:36:43;7.80;99.90
26378;DHT22;14078;50.974;6.786;2023-12-20T13:39:15;7.70;99.90
26378;DHT22;14078;50.974;6.786;2023-12-20T13:41:43;7.80;99.90
26378;DHT22;14078;50.974;6.786;2023-12-20T13:44:39;7.80;99.90
26378;DHT22;14078;50.974;6.786;2023-12-20T13:47:15;7.80;99.90
26378;DHT22;14078;50.974;6.786;2023-12-20T13:49:42;7.80;99.90
26378;DHT22;14078;50.974;6.786;2023-12-20T13:52:13;7.80;99.90
26378;DHT22;14078;50.974;6.786;2023-12-20T13:54:42;7.80;99.90
26378;DHT22;14078;50.974;6.786;2023-12-20T13:57:12;7.80;99.90
26378;DHT22;14078;50.974;6.786;2023-12-20T13:59:45;7.70;99.90
26378;DHT22;14078;50.974;6.786;2023-12-20T14:02:12;7.70;99.90
26378;DHT22;14078;50.974;6.786;2023-12-20T14:04:42;7.60;99.90
26378;DHT22;14078;50.974;6.786;2023-12-20T14:07:12;7.70;99.90
26378;DHT22;14078;50.974;6.786;2023-12-20T14:09:42;7.60;99.90
26378;DHT22;14078;50.974;6.786;2023-12-20T14:12:12;7.70;99.90
26378;DHT22;14078;50.974;6.786;2023-12-20T14:14:45;7.70;99.90
26378;DHT22;14078;50.974;6.786;2023-12-20T14:17:12;7.70;99.90
26378;DHT22;14078;50.974;6.786;2023-12-20T14:19:40;7.70;99.90
26378;DHT22;14078;50.974;6.786;2023-12-20T14:22:07;7.70;99.90
26378;DHT22;14078;50.974;6.786;2023-12-20T14:24:35;7.70;99.90
26378;DHT22;14078;50.974;6.786;2023-12-20T14:27:02;7.80;99.90
26378;DHT22;14078;50.974;6.786;2023-12-20T14:29:31;7.80;99.90
26378;DHT22;14078;50.974;6.786;2023-12-20T14:32:01;7.80;99.90
26378;DHT22;14078;50.974;6.786;2023-12-20T14:34:29;7.80;99.90
26378;DHT22;14078;50.974;6.786;2023-12-20T14:37:01;7.80;99.90
26378;DHT22;14078;50.974;6.786;2023-12-20T14:39:32;7.80;99.90
26378;DHT22;14078;50.974;6.786;2023-12-20T14:42:01;7.80;99.90
26378;DHT22;14078;50.974;6.786;2023-12-20T14:44:28;7.80;99.90
26378;DHT22;14078;50.974;6.786;2023-12-20T14:47:00;7.90;99.90
26378;DHT22;14078;50.974;6.786;2023-12-20T14:49:27;8.00;99.90
26378;DHT22;14078;50.974;6.786;2023-12-20T14:51:58;8.00;99.90
26378;DHT22;14078;50.974;6.786;2023-12-20T14:54:32;8.10;99.90
26378;DHT22;14078;50.974;6.786;2023-12-20T14:57:01;8.10;99.90
26378;DHT22;14078;50.974;6.786;2023-12-20T14:59:28;8.10;99.90
26378;DHT22;14078;50.974;6.786;2023-12-20T15:02:02;8.10;99.90
26378;DHT22;14078;50.974;6.786;2023-12-20T15:04:32;8.00;99.90
26378;DHT22;14078;50.974;6.786;2023-12-20T15:07:00;8.10;99.90
26378;DHT22;14078;50.974;6.786;2023-12-20T15:09:28;8.10;99.90
26378;DHT22;14078;50.974;6.786;2023-12-20T15:11:56;8.10;99.90
26378;DHT22;14078;50.974;6.786;2023-12-20T15:14:23;8.00;99.90
26378;DHT22;14078;50.974;6.786;2023-12-20T15:16:50;8.00;99.90
26378;DHT22;14078;50.974;6.786;2023-12-20T15:19:18;8.00;99.90
26378;DHT22;14078;50.974;6.786;2023-12-20T15:21:45;7.80;99.90
26378;DHT22;14078;50.974;6.786;2023-12-20T15:24:12;7.80;99.90
26378;DHT22;14078;50.974;6.786;2023-12-20T15:26:41;7.80;99.90
26378;DHT22;14078;50.974;6.786;2023-12-20T15:29:08;7.70;99.90
26378;DHT22;14078;50.974;6.786;2023-12-20T15:31:42;7.80;99.90
26378;DHT22;14078;50.974;6.786;2023-12-20T15:34:12;7.70;99.90
26378;DHT22;14078;50.974;6.786;2023-12-20T15:36:43;7.70;99.90
26378;DHT22;14078;50.974;6.786;2023-12-20T15:39:12;7.70;99.90
26378;DHT22;14078;50.974;6.786;2023-12-20T15:41:40;7.70;99.90
26378;DHT22;14078;50.974;6.786;2023-12-20T15:44:09;7.70;99.90
26378;DHT22;14078;50.974;6.786;2023-12-20T15:46:39;7.70;99.90
26378;DHT22;14078;50.974;6.786;2023-12-20T15:49:09;7.70;99.90
26378;DHT22;14078;50.974;6.786;2023-12-20T15:51:37;7.70;99.90
26378;DHT22;14078;50.974;6.786;2023-12-20T15:54:09;7.70;99.90